Youngstown Warren Regional Airport
KYNG : now visible

Airfield :











YOU CAN JOIN US ON...

 
LOGIN :

Register | Disclaimer

   EN    FR    IT 

 









Legend :    VFR   Marginal VFR   IFR   Intensive IFR   Very Intensive IFR
Visi :
Ceiling :
>= 8 km
>= 3000ft
5 to 8 km
1000 to 3000 ft
1500m to 5 km
500 to 1000 ft
800 to 1500m
200 to 500 ft
< 800m
< 200 ft
Symbols :   Thunderstorms  Fog  Heavy snow  Heavy precipitations  Wind > 20 kt






- Airport Elevation : 1192 ft
- IATA code : YNG


KYNG - Youngstown Warren Regional

CURRENT METAR :
  • 101551Z 27013G19KT 10SM OVC020 01/M04 A2993 RMK AO2 SLP141 T00111039

EXPIRED METARs :
  • 101451Z 27011G19KT 10SM BKN020 OVC030 02/M03 A2992 RMK AO2 PRESRR SLP136 T00221028 53051
  • 101351Z 26011KT 10SM OVC023 03/M02 A2982 RMK AO2 SLP103 T00281022

TAF KYNG
Valid from the 10 at 12:00 until the 11 at 12:00 UTC


101141Z 1012/1112 28009KT P6SM SCT015 OVC025
FM101400 26010KT P6SM OVC015
FM102100 27010KT P6SM OVC025
FM110200 27008KT P6SM OVC035
FM110500 27007KT P6SM BKN080
FM111100 24009KT P6SM SCT250



MET'MAP, your aeronautical weather chart ! - Copyright ORBIFLY December 2007 - Disclaimer

ORBIFLY MET'MAP TEAM :

Programming & Development : Alexandra Zaïnal
Concept & original design : Baudouin d'Aumeries
Assistance for programming : Marc-Olivier Méhu
Technical & hardware support : Manuel Goepfert

Contact : metmap@orbifly.com




SOURCES & CREDITS :

   NOAA       Earth
Advisory